createdAt,value
2019-05-19T00:02:23.184Z,99123.05
2019-05-19T00:07:24.771Z,99128.09
2019-05-19T00:12:26.305Z,99115.05
2019-05-19T00:17:27.862Z,99117.73
2019-05-19T00:22:29.528Z,99110.39
2019-05-19T00:27:31.078Z,99115.20
2019-05-19T00:32:32.692Z,99114.78
2019-05-19T00:37:34.349Z,99111.03
2019-05-19T00:42:35.907Z,99111.38
2019-05-19T00:47:37.455Z,99106.61
2019-05-19T00:52:38.983Z,99104.72
2019-05-19T00:57:40.841Z,99097.42
2019-05-19T01:02:42.599Z,99102.22
2019-05-19T01:07:44.260Z,99104.56
2019-05-19T01:12:45.852Z,99105.89
2019-05-19T01:17:47.403Z,99096.63
2019-05-19T01:22:48.952Z,99100.29
2019-05-19T01:27:50.596Z,99090.80
2019-05-19T01:32:52.251Z,99086.34
2019-05-19T01:37:53.799Z,99079.64
2019-05-19T01:42:55.494Z,99084.44
2019-05-19T01:47:57.036Z,99080.66
2019-05-19T01:52:58.592Z,99079.23
2019-05-19T01:58:00.140Z,99081.05
2019-05-19T02:03:01.692Z,99076.77
2019-05-19T02:08:03.353Z,99078.70
2019-05-19T02:13:05.424Z,99080.66
2019-05-19T02:18:07.170Z,99083.34
2019-05-19T02:23:08.824Z,99084.69
2019-05-19T02:28:10.435Z,99078.19
2019-05-19T02:33:11.958Z,99080.23
2019-05-19T02:38:13.537Z,99080.64
2019-05-19T02:43:16.298Z,99082.09
2019-05-19T02:48:18.501Z,99079.89
2019-05-19T02:53:20.267Z,99076.96
2019-05-19T02:58:22.685Z,99085.92
2019-05-19T03:03:24.251Z,99081.98
2019-05-19T03:08:25.816Z,99088.70
2019-05-19T03:13:27.398Z,99091.47
2019-05-19T03:18:29.242Z,99087.27
2019-05-19T03:23:30.838Z,99094.89
2019-05-19T03:28:32.500Z,99092.34
2019-05-19T03:33:35.989Z,99094.09
2019-05-19T03:38:37.514Z,99088.38
2019-05-19T03:43:39.074Z,99095.59
2019-05-19T03:48:40.656Z,99096.91
2019-05-19T03:53:42.188Z,99092.44
2019-05-19T03:58:43.745Z,99092.44
2019-05-19T04:03:45.293Z,99088.59
2019-05-19T04:08:46.879Z,99081.90
2019-05-19T04:13:48.434Z,99089.52
2019-05-19T04:18:50.133Z,99085.37
2019-05-19T04:23:51.679Z,99090.47
2019-05-19T04:28:53.237Z,99093.50
2019-05-19T04:33:54.778Z,99087.81
2019-05-19T04:38:56.330Z,99092.56
2019-05-19T04:43:57.879Z,99101.00
2019-05-19T04:48:59.564Z,99097.24
2019-05-19T04:54:01.121Z,99088.78
2019-05-19T04:59:02.894Z,99088.67
2019-05-19T05:04:04.467Z,99097.20
2019-05-19T05:09:06.157Z,99090.95
2019-05-19T05:14:07.709Z,99098.69
2019-05-19T05:19:09.377Z,99097.34
2019-05-19T05:24:11.050Z,99100.56
2019-05-19T05:29:12.681Z,99106.21
2019-05-19T05:34:14.260Z,99103.23
2019-05-19T05:39:15.811Z,99091.70
2019-05-19T05:44:17.361Z,99104.80
2019-05-19T05:49:19.150Z,99102.72
2019-05-19T05:54:20.702Z,99104.38
2019-05-19T05:59:22.614Z,99109.44
2019-05-19T06:04:24.155Z,99102.25
2019-05-19T06:09:25.913Z,99104.66
2019-05-19T06:14:27.569Z,99101.23
2019-05-19T06:19:29.219Z,99097.58
2019-05-19T06:24:30.789Z,99104.63
2019-05-19T06:29:32.577Z,99096.02
2019-05-19T06:34:34.143Z,99106.01
2019-05-19T06:39:35.689Z,99100.31
2019-05-19T06:44:37.250Z,99096.04
2019-05-19T06:49:38.788Z,99094.81
2019-05-19T06:54:40.346Z,99100.48
2019-05-19T06:59:41.900Z,99092.81
2019-05-19T07:04:43.594Z,99083.98
2019-05-19T07:09:57.380Z,99086.22
2019-05-19T07:14:48.859Z,99082.38
2019-05-19T07:19:50.517Z,99081.02
2019-05-19T07:24:52.053Z,99071.05
2019-05-19T07:29:53.635Z,99071.97
2019-05-19T07:34:55.288Z,99072.23
2019-05-19T07:39:56.869Z,99069.27
2019-05-19T07:44:58.603Z,99073.45
2019-05-19T07:50:00.168Z,99064.95
2019-05-19T07:55:01.852Z,99070.17
2019-05-19T08:00:04.276Z,99071.69
2019-05-19T08:05:05.946Z,99070.45
2019-05-19T08:10:07.609Z,99067.88
2019-05-19T08:15:09.477Z,99063.69
2019-05-19T08:20:11.244Z,99053.49
2019-05-19T08:25:12.994Z,99055.02
2019-05-19T08:30:16.481Z,99049.05
2019-05-19T08:35:18.047Z,99049.39
2019-05-19T08:40:19.693Z,99046.83
2019-05-19T08:45:21.289Z,99051.94
2019-05-19T08:50:22.849Z,99054.83
2019-05-19T08:55:24.405Z,99047.45
2019-05-19T09:00:26.054Z,99041.61
2019-05-19T09:05:27.781Z,99043.05
2019-05-19T09:10:29.490Z,99040.70
2019-05-19T09:15:31.163Z,99043.66
2019-05-19T09:20:32.824Z,99038.85
2019-05-19T09:25:34.360Z,99038.97
2019-05-19T09:30:35.959Z,99036.45
2019-05-19T09:35:37.508Z,99025.94
2019-05-19T09:40:39.069Z,99031.63
2019-05-19T09:45:40.724Z,99033.27
2019-05-19T09:50:42.410Z,99033.13
2019-05-19T09:55:43.961Z,99034.97
2019-05-19T10:00:45.682Z,99027.77
2019-05-19T10:05:47.352Z,99029.20
2019-05-19T10:11:01.080Z,99022.78
2019-05-19T10:16:02.764Z,99017.41
2019-05-19T10:21:05.992Z,99019.09
2019-05-19T10:26:07.546Z,99011.94
2019-05-19T10:31:09.105Z,99001.60
2019-05-19T10:36:10.672Z,99001.98
2019-05-19T10:41:12.228Z,99001.55
2019-05-19T10:46:13.786Z,99005.52
2019-05-19T10:51:15.327Z,99004.97
2019-05-19T10:56:19.127Z,99006.09
2019-05-19T11:01:20.416Z,98997.38
2019-05-19T11:06:21.957Z,98991.27
2019-05-19T11:11:23.504Z,98985.84
2019-05-19T11:16:25.047Z,98984.38
2019-05-19T11:21:26.717Z,98989.94
2019-05-19T11:26:28.270Z,98982.05
2019-05-19T11:31:29.994Z,98981.50
2019-05-19T11:36:31.553Z,98988.95
2019-05-19T11:41:33.318Z,98986.48
2019-05-19T11:46:35.060Z,98979.09
2019-05-19T11:51:36.612Z,98989.31
2019-05-19T11:56:38.147Z,98979.67
2019-05-19T12:01:39.696Z,98971.23
2019-05-19T12:06:41.404Z,98970.76
2019-05-19T12:11:42.963Z,98956.67
2019-05-19T12:16:44.538Z,98961.84
2019-05-19T12:21:46.080Z,98963.26
2019-05-19T12:26:48.486Z,98965.96
2019-05-19T12:31:50.060Z,98970.75
2019-05-19T12:36:51.732Z,98959.16
2019-05-19T12:41:53.282Z,98950.93
2019-05-19T12:46:54.827Z,98945.52
2019-05-19T12:51:56.471Z,98941.03
2019-05-19T12:56:58.031Z,98936.00
2019-05-19T13:01:59.609Z,98926.93
2019-05-19T13:07:01.157Z,98927.63
2019-05-19T13:12:02.850Z,98916.19
2019-05-19T13:17:04.625Z,98916.20
2019-05-19T13:22:06.346Z,98911.16
2019-05-19T13:27:08.004Z,98902.23
2019-05-19T13:32:09.856Z,98904.50
2019-05-19T13:37:11.564Z,98900.70
2019-05-19T13:42:13.123Z,98894.58
2019-05-19T13:47:14.991Z,98899.64
2019-05-19T13:52:16.610Z,98896.13
2019-05-19T13:57:18.188Z,98908.52
2019-05-19T14:02:19.746Z,98898.20
2019-05-19T14:07:21.323Z,98893.55
2019-05-19T14:12:22.881Z,98893.23
2019-05-19T14:17:24.467Z,98887.31
2019-05-19T14:22:25.976Z,98872.56
2019-05-19T14:27:30.763Z,98876.10
2019-05-19T14:32:31.173Z,98879.01
2019-05-19T14:37:32.746Z,98870.11
2019-05-19T14:42:59.956Z,98872.44
2019-05-19T14:48:01.636Z,98868.18
2019-05-19T14:53:03.302Z,98862.40
2019-05-19T14:58:04.971Z,98866.13
2019-05-19T15:03:06.547Z,98855.20
2019-05-19T15:08:08.097Z,98860.52
2019-05-19T15:13:09.773Z,98851.31
2019-05-19T15:18:11.326Z,98849.80
2019-05-19T15:23:12.876Z,98853.37
2019-05-19T15:28:14.422Z,98844.56
2019-05-19T15:33:16.015Z,98844.83
2019-05-19T15:38:17.551Z,98827.50
2019-05-19T15:43:19.225Z,98826.41
2019-05-19T15:48:20.785Z,98828.36
2019-05-19T15:53:22.349Z,98821.00
2019-05-19T15:58:23.908Z,98809.98
2019-05-19T16:03:25.493Z,98803.42
2019-05-19T16:08:27.089Z,98798.13
2019-05-19T16:13:28.657Z,98797.58
2019-05-19T16:18:30.222Z,98788.47
2019-05-19T16:23:32.008Z,98786.34
2019-05-19T16:28:33.565Z,98785.46
2019-05-19T16:33:35.177Z,98785.62
2019-05-19T16:38:36.837Z,98787.75
2019-05-19T16:43:38.699Z,98786.84
2019-05-19T16:48:40.255Z,98777.96
2019-05-19T16:53:43.229Z,98772.61
2019-05-19T16:58:45.875Z,98776.68
2019-05-19T17:03:47.530Z,98772.73
2019-05-19T17:08:49.099Z,98774.31
2019-05-19T17:13:50.683Z,98769.91
2019-05-19T17:18:52.230Z,98774.16
2019-05-19T17:23:53.789Z,98770.99
2019-05-19T17:29:00.734Z,98776.65
2019-05-19T17:33:58.798Z,98779.70
2019-05-19T17:39:00.447Z,98776.11
2019-05-19T17:44:02.127Z,98782.55
2019-05-19T17:49:03.804Z,98781.17
2019-05-19T17:54:05.467Z,98778.81
2019-05-19T17:59:16.130Z,98784.75
2019-05-19T18:04:11.446Z,98786.76
2019-05-19T18:09:13.030Z,98789.72
2019-05-19T18:14:14.602Z,98790.63
2019-05-19T18:19:16.292Z,98782.47
2019-05-19T18:24:17.980Z,98786.75
2019-05-19T18:29:30.998Z,98789.47
2019-05-19T18:34:23.137Z,98788.97
2019-05-19T18:39:24.830Z,98793.78
2019-05-19T18:44:26.384Z,98789.91
2019-05-19T18:49:27.967Z,98793.33
2019-05-19T18:54:29.556Z,98792.89
2019-05-19T18:59:46.050Z,98806.52
2019-05-19T19:04:34.625Z,98810.37
2019-05-19T19:09:36.195Z,98812.29
2019-05-19T19:14:37.784Z,98813.13
2019-05-19T19:19:39.421Z,98818.77
2019-05-19T19:24:41.004Z,98820.61
2019-05-19T19:29:42.829Z,98822.72
2019-05-19T19:34:44.442Z,98834.45
2019-05-19T19:39:46.062Z,98834.45
2019-05-19T19:44:47.648Z,98831.93
2019-05-19T19:49:49.207Z,98831.59
2019-05-19T19:54:50.808Z,98832.91
2019-05-19T19:59:52.418Z,98831.77
2019-05-19T20:04:54.001Z,98830.34
2019-05-19T20:09:55.568Z,98831.80
2019-05-19T20:14:57.158Z,98825.06
2019-05-19T20:19:58.704Z,98826.84
2019-05-19T20:25:00.265Z,98819.23
2019-05-19T20:30:02.084Z,98825.28
2019-05-19T20:35:03.849Z,98823.38
2019-05-19T20:40:05.657Z,98824.88
2019-05-19T20:45:07.412Z,98832.19
2019-05-19T20:50:08.979Z,98823.59
2019-05-19T20:55:10.732Z,98819.23
2019-05-19T21:00:12.498Z,98818.89
2019-05-19T21:05:14.197Z,98815.36
2019-05-19T21:10:15.765Z,98817.41
2019-05-19T21:15:17.644Z,98810.83
2019-05-19T21:20:19.341Z,98819.77
2019-05-19T21:25:20.921Z,98816.42
2019-05-19T21:30:22.491Z,98828.36
2019-05-19T21:35:24.066Z,98817.67
2019-05-19T21:40:25.620Z,98817.59
2019-05-19T21:45:27.206Z,98824.03
2019-05-19T21:50:28.756Z,98823.75
2019-05-19T21:55:30.427Z,98818.90
2019-05-19T22:00:32.510Z,98816.50
2019-05-19T22:05:34.070Z,98813.90
2019-05-19T22:10:35.621Z,98824.65
2019-05-19T22:15:37.480Z,98827.41
2019-05-19T22:20:39.122Z,98823.12
2019-05-19T22:25:40.658Z,98824.11
2019-05-19T22:30:42.239Z,98827.75
2019-05-19T22:35:43.801Z,98830.63
2019-05-19T22:40:45.356Z,98821.72
2019-05-19T22:45:46.942Z,98824.31
2019-05-19T22:50:48.626Z,98819.14
2019-05-19T22:55:50.177Z,98815.59
2019-05-19T23:00:51.734Z,98814.69
2019-05-19T23:05:53.383Z,98814.98
2019-05-19T23:10:54.956Z,98813.36
2019-05-19T23:15:56.616Z,98808.01
2019-05-19T23:20:58.366Z,98803.91
2019-05-19T23:25:59.991Z,98810.23
2019-05-19T23:31:01.553Z,98817.11
2019-05-19T23:36:03.239Z,98816.35
2019-05-19T23:41:04.804Z,98819.01
2019-05-19T23:46:06.373Z,98819.84
2019-05-19T23:51:07.980Z,98821.45
2019-05-19T23:56:09.589Z,98819.48
